Time,TemperatureF,DewpointF,PressureIn,WindDirection,WindDirectionDegrees,WindSpeedMPH,WindSpeedGustMPH,Humidity,HourlyPrecipIn,Conditions,Clouds,dailyrainin,SoftwareType,DateUTC
2013-11-18 00:03:00,55.0,55.0,29.87,ESE,105,2.8,4.3,100,0.00,,,0.00,VWS V14.01,2013-11-18 05:03:00,
2013-11-18 00:13:00,55.1,55.1,29.86,East,96,4.3,5.7,100,0.00,,,0.00,VWS V14.01,2013-11-18 05:13:00,
2013-11-18 00:23:00,55.1,55.1,29.85,SSE,155,1.4,7.1,100,0.00,,,0.00,VWS V14.01,2013-11-18 05:23:00,
2013-11-18 00:33:00,55.1,55.1,29.85,ESE,116,1.4,5.7,100,0.00,,,0.00,VWS V14.01,2013-11-18 05:33:00,
2013-11-18 00:43:00,55.1,55.1,29.83,East,88,0.0,5.7,100,0.00,,,0.00,VWS V14.01,2013-11-18 05:43:00,
2013-11-18 00:53:00,55.3,55.3,29.83,East,93,2.8,4.3,100,0.00,,,0.00,VWS V14.01,2013-11-18 05:53:00,
2013-11-18 01:03:00,55.3,55.3,29.81,ESE,104,9.9,9.9,100,0.00,,,0.00,VWS V14.01,2013-11-18 06:03:00,
2013-11-18 01:13:00,55.3,55.3,29.82,ESE,120,4.3,4.3,100,0.00,,,0.00,VWS V14.01,2013-11-18 06:13:00,
2013-11-18 01:23:00,55.4,55.4,29.82,SSE,154,2.8,4.3,100,0.02,,,0.02,VWS V14.01,2013-11-18 06:23:00,
2013-11-18 01:33:00,55.4,55.4,29.81,SE,127,1.4,2.8,100,0.03,,,0.03,VWS V14.01,2013-11-18 06:33:00,
2013-11-18 01:42:00,55.4,55.4,29.80,SSE,157,1.4,8.5,100,0.03,,,0.03,VWS V14.01,2013-11-18 06:42:00,
2013-11-18 01:52:00,55.6,55.6,29.80,SSE,165,0.0,2.8,100,0.03,,,0.03,VWS V14.01,2013-11-18 06:52:00,
2013-11-18 02:02:00,55.9,55.9,29.79,SE,140,1.4,2.8,100,0.04,,,0.04,VWS V14.01,2013-11-18 07:02:00,
2013-11-18 02:12:00,55.9,55.9,29.79,SSE,162,8.5,8.5,100,0.04,,,0.04,VWS V14.01,2013-11-18 07:12:00,
2013-11-18 02:22:00,55.8,55.8,29.78,East,94,2.8,4.3,100,0.05,,,0.05,VWS V14.01,2013-11-18 07:22:00,
2013-11-18 02:32:00,55.7,55.7,29.77,ESE,105,4.3,4.3,100,0.03,,,0.05,VWS V14.01,2013-11-18 07:32:00,
2013-11-18 02:42:00,55.7,55.7,29.76,SE,136,2.8,9.9,100,0.02,,,0.05,VWS V14.01,2013-11-18 07:42:00,
2013-11-18 02:52:00,55.7,55.7,29.75,SSE,167,0.0,7.1,100,0.03,,,0.06,VWS V14.01,2013-11-18 07:52:00,
2013-11-18 03:02:00,55.7,55.7,29.74,East,80,2.8,4.3,100,0.03,,,0.06,VWS V14.01,2013-11-18 08:02:00,
2013-11-18 03:12:00,55.8,55.8,29.72,SSE,160,1.4,8.5,100,0.02,,OVC050,0.06,VWS V14.01,2013-11-18 08:12:00,
2013-11-18 03:22:00,55.8,55.8,29.71,South,169,2.8,8.5,100,0.02,,OVC050,0.06,VWS V14.01,2013-11-18 08:22:00,
2013-11-18 03:32:00,56.2,56.2,29.70,SSE,156,7.1,8.5,100,0.01,,OVC050,0.06,VWS V14.01,2013-11-18 08:32:00,
2013-11-18 03:42:00,56.4,56.4,29.70,South,173,12.8,12.8,100,0.01,,OVC050,0.06,VWS V14.01,2013-11-18 08:42:00,
2013-11-18 03:52:00,56.7,56.7,29.69,South,184,5.7,9.9,100,0.01,,OVC050,0.06,VWS V14.01,2013-11-18 08:52:00,
2013-11-18 04:02:00,57.0,57.0,29.68,South,189,7.1,9.9,100,0.00,,OVC050,0.06,VWS V14.01,2013-11-18 09:02:00,
2013-11-18 04:12:00,57.2,57.2,29.67,South,188,9.9,15.6,100,0.04,,-RA,0.10,VWS V14.01,2013-11-18 09:12:00,
2013-11-18 04:22:00,57.3,57.3,29.67,South,184,5.7,8.5,100,0.04,,-RA,0.10,VWS V14.01,2013-11-18 09:22:00,
2013-11-18 04:32:00,57.6,57.6,29.65,South,190,4.3,19.9,100,0.06,,-RA,0.12,VWS V14.01,2013-11-18 09:32:00,
2013-11-18 04:43:00,57.8,57.8,29.64,SSE,167,5.7,14.2,100,0.07,,-RA,0.13,VWS V14.01,2013-11-18 09:43:00,
2013-11-18 04:53:00,58.1,58.1,29.64,SSE,168,4.3,11.4,100,0.07,,-RA,0.13,VWS V14.01,2013-11-18 09:53:00,
2013-11-18 05:03:00,58.1,58.1,29.63,SSE,158,4.3,18.5,100,0.11,,-RA,0.17,VWS V14.01,2013-11-18 10:03:00,
2013-11-18 05:13:00,57.9,57.9,29.64,ENE,75,2.8,17.0,100,0.18,, +RA,0.24,VWS V14.01,2013-11-18 10:13:00,
2013-11-18 05:23:00,58.2,58.2,29.63,SSW,201,21.3,29.8,100,0.25,, +RA,0.35,VWS V14.01,2013-11-18 10:23:00,
2013-11-18 05:33:00,58.3,58.3,29.63,South,187,9.9,24.1,100,0.30,, +RA,0.40,VWS V14.01,2013-11-18 10:33:00,
2013-11-18 05:43:00,58.4,58.4,29.63,SSE,164,5.7,14.2,100,0.29,, +RA,0.41,VWS V14.01,2013-11-18 10:43:00,
2013-11-18 05:53:00,58.2,58.2,29.65,SSW,201,12.8,17.0,100,0.31,, +RA,0.44,VWS V14.01,2013-11-18 10:53:00,
2013-11-18 06:03:00,57.6,57.6,29.66,SSW,195,1.4,15.6,100,0.31,, +RA,0.44,VWS V14.01,2013-11-18 11:03:00,
2013-11-18 06:13:00,57.0,57.0,29.65,South,180,2.8,8.5,100,0.27,,OVC049,0.44,VWS V14.01,2013-11-18 11:13:00,
2013-11-18 06:23:00,56.3,56.3,29.65,WSW,254,5.7,7.1,100,0.20,,OVC049,0.44,VWS V14.01,2013-11-18 11:23:00,
2013-11-18 06:33:00,56.3,56.3,29.65,SSW,208,1.4,2.8,100,0.09,,OVC049,0.44,VWS V14.01,2013-11-18 11:33:00,
2013-11-18 06:43:00,56.3,56.3,29.65,SSW,208,1.4,2.8,100,0.04,,OVC049,0.44,VWS V14.01,2013-11-18 11:43:00,
2013-11-18 06:53:00,56.2,56.2,29.66,SSE,167,5.7,5.7,100,0.03,,OVC049,0.44,VWS V14.01,2013-11-18 11:53:00,
2013-11-18 07:03:00,55.4,55.4,29.66,South,178,2.8,7.1,100,0.00,,OVC049,0.44,VWS V14.01,2013-11-18 12:03:00,
2013-11-18 07:13:00,55.1,55.1,29.64,South,190,2.8,4.3,100,0.00,,-RA,0.44,VWS V14.01,2013-11-18 12:13:00,
2013-11-18 07:23:00,55.0,55.0,29.65,SSW,210,1.4,7.1,100,0.00,,-RA,0.44,VWS V14.01,2013-11-18 12:23:00,
2013-11-18 07:33:00,54.8,54.8,29.65,SSE,158,4.3,7.1,100,0.00,,-RA,0.44,VWS V14.01,2013-11-18 12:33:00,
2013-11-18 07:45:00,54.7,54.7,29.66,SSW,202,4.3,12.8,100,0.00,,-RA,0.44,VWS V14.01,2013-11-18 12:45:00,
2013-11-18 07:52:00,54.1,54.1,29.66,SSW,195,4.3,5.7,100,0.00,,-RA,0.44,VWS V14.01,2013-11-18 12:52:00,
2013-11-18 08:02:00,53.8,53.8,29.67,SSW,197,7.1,8.5,100,0.00,,-RA,0.44,VWS V14.01,2013-11-18 13:02:00,
2013-11-18 08:12:00,53.8,53.8,29.67,SSE,153,1.4,4.3,100,0.00,,OVC090,0.44,VWS V14.01,2013-11-18 13:12:00,
2013-11-18 08:22:00,53.7,53.4,29.67,SSE,165,8.5,14.2,99,0.00,,OVC090,0.44,VWS V14.01,2013-11-18 13:22:00,
2013-11-18 08:32:00,53.8,53.5,29.67,SSW,196,7.1,12.8,99,0.00,,OVC090,0.44,VWS V14.01,2013-11-18 13:32:00,
2013-11-18 08:42:00,54.1,53.5,29.67,South,177,8.5,17.0,98,0.00,,OVC090,0.44,VWS V14.01,2013-11-18 13:42:00,
2013-11-18 08:52:00,54.5,53.1,29.68,SSW,193,4.3,11.4,95,0.00,,OVC090,0.44,VWS V14.01,2013-11-18 13:52:00,
2013-11-18 09:02:00,54.8,51.6,29.68,South,178,5.7,7.1,89,0.00,,OVC090,0.44,VWS V14.01,2013-11-18 14:02:00,
2013-11-18 09:12:00,55.0,50.6,29.68,SSE,153,4.3,8.5,85,0.00,,BKN100,0.44,VWS V14.01,2013-11-18 14:12:00,
2013-11-18 09:22:00,55.1,50.0,29.68,SSW,213,7.1,9.9,83,0.00,,BKN100,0.44,VWS V14.01,2013-11-18 14:22:00,
2013-11-18 09:32:00,55.7,50.3,29.68,SSW,199,4.3,7.1,82,0.00,,BKN100,0.44,VWS V14.01,2013-11-18 14:32:00,
2013-11-18 09:42:00,56.0,49.6,29.68,SSW,204,7.1,11.4,79,0.00,,BKN100,0.44,VWS V14.01,2013-11-18 14:42:00,
2013-11-18 09:52:00,55.9,48.8,29.68,South,185,5.7,14.2,77,0.00,,BKN100,0.44,VWS V14.01,2013-11-18 14:52:00,
2013-11-18 10:02:00,56.0,48.5,29.67,South,190,8.5,12.8,76,0.00,,BKN100,0.44,VWS V14.01,2013-11-18 15:02:00,
2013-11-18 10:13:00,56.3,48.5,29.67,SE,139,14.2,14.2,75,0.00,,BKN100,0.44,VWS V14.01,2013-11-18 15:13:00,
2013-11-18 10:23:00,56.6,48.8,29.67,SSE,166,8.5,9.9,75,0.00,,BKN100,0.44,VWS V14.01,2013-11-18 15:23:00,
2013-11-18 10:33:00,57.3,48.7,29.66,SSW,202,4.3,7.1,73,0.00,,BKN100,0.44,VWS V14.01,2013-11-18 15:33:00,
2013-11-18 10:43:00,58.4,48.7,29.65,West,262,1.4,9.9,70,0.00,,BKN100,0.44,VWS V14.01,2013-11-18 15:43:00,
2013-11-18 10:53:00,58.7,46.6,29.65,SSE,165,4.3,5.7,64,0.00,,BKN100,0.44,VWS V14.01,2013-11-18 15:53:00,
2013-11-18 11:03:00,58.8,44.1,29.64,SSE,168,4.3,14.2,58,0.00,,BKN100,0.44,VWS V14.01,2013-11-18 16:03:00,
2013-11-18 11:13:00,59.1,43.0,29.64,SE,136,2.8,17.0,55,0.00,,SCT100,0.44,VWS V14.01,2013-11-18 16:13:00,
2013-11-18 11:23:00,59.8,43.6,29.63,SSE,148,5.7,8.5,55,0.00,,SCT100,0.44,VWS V14.01,2013-11-18 16:23:00,
2013-11-18 11:33:00,59.6,43.0,29.63,SSE,158,2.8,9.9,54,0.00,,SCT100,0.44,VWS V14.01,2013-11-18 16:33:00,
2013-11-18 11:43:00,59.9,43.2,29.62,SSE,152,1.4,9.9,54,0.00,,SCT100,0.44,VWS V14.01,2013-11-18 16:43:00,
2013-11-18 11:53:00,60.9,43.7,29.62,SSE,161,8.5,9.9,53,0.00,,SCT100,0.44,VWS V14.01,2013-11-18 16:53:00,
2013-11-18 12:03:00,60.5,41.8,29.62,SSE,158,4.3,8.5,50,0.00,,SCT100,0.44,VWS V14.01,2013-11-18 17:03:00,
2013-11-18 12:13:00,60.7,44.0,29.63,SSE,160,5.7,11.4,54,0.00,,CLR,0.44,VWS V14.01,2013-11-18 17:13:00,
2013-11-18 12:23:00,60.1,43.9,29.62,South,184,1.4,12.8,55,0.00,,CLR,0.44,VWS V14.01,2013-11-18 17:23:00,
2013-11-18 12:33:00,59.9,43.2,29.63,SSE,166,7.1,11.4,54,0.00,,CLR,0.44,VWS V14.01,2013-11-18 17:33:00,
2013-11-18 12:43:00,59.8,43.1,29.63,SE,139,11.4,17.0,54,0.00,,CLR,0.44,VWS V14.01,2013-11-18 17:43:00,
2013-11-18 12:53:00,59.7,43.0,29.63,SE,141,5.7,11.4,54,0.00,,CLR,0.44,VWS V14.01,2013-11-18 17:53:00,
2013-11-18 13:03:00,60.1,43.4,29.62,SE,131,4.3,11.4,54,0.00,,CLR,0.44,VWS V14.01,2013-11-18 18:03:00,
2013-11-18 13:13:00,60.6,42.9,29.63,SE,137,4.3,5.7,52,0.00,,CLR,0.44,VWS V14.01,2013-11-18 18:13:00,
2013-11-18 13:23:00,60.4,42.2,29.62,SE,143,5.7,8.5,51,0.00,,CLR,0.44,VWS V14.01,2013-11-18 18:23:00,
2013-11-18 13:33:00,61.0,42.2,29.62,SSE,148,8.5,8.5,50,0.00,,CLR,0.44,VWS V14.01,2013-11-18 18:33:00,
2013-11-18 13:42:00,60.5,41.3,29.63,SSE,162,9.9,9.9,49,0.00,,CLR,0.44,VWS V14.01,2013-11-18 18:42:00,
2013-11-18 13:52:00,60.5,41.3,29.62,SE,144,4.3,14.2,49,0.00,,CLR,0.44,VWS V14.01,2013-11-18 18:52:00,
2013-11-18 14:02:00,60.4,41.2,29.63,SSE,156,4.3,11.4,49,0.00,,CLR,0.44,VWS V14.01,2013-11-18 19:02:00,
2013-11-18 14:12:00,60.5,41.3,29.63,SSE,155,7.1,12.8,49,0.00,,CLR,0.44,VWS V14.01,2013-11-18 19:12:00,
2013-11-18 14:22:00,60.4,40.6,29.63,SSE,155,7.1,14.2,48,0.00,,CLR,0.44,VWS V14.01,2013-11-18 19:22:00,
2013-11-18 14:32:00,60.4,40.6,29.63,SSE,148,5.7,8.5,48,0.00,,CLR,0.44,VWS V14.01,2013-11-18 19:32:00,
2013-11-18 14:42:00,60.1,39.3,29.63,SSE,152,5.7,11.4,46,0.00,,CLR,0.44,VWS V14.01,2013-11-18 19:42:00,
2013-11-18 14:52:00,59.9,38.5,29.63,SSE,147,8.5,11.4,45,0.00,,CLR,0.44,VWS V14.01,2013-11-18 19:52:00,
2013-11-18 15:02:00,59.4,38.1,29.62,SE,129,1.4,12.8,45,0.00,,CLR,0.44,VWS V14.01,2013-11-18 20:02:00,
2013-11-18 15:12:00,59.4,38.1,29.62,SSE,154,5.7,7.1,45,0.00,,CLR,0.44,VWS V14.01,2013-11-18 20:12:00,
2013-11-18 15:22:00,59.0,36.6,29.62,SSE,155,5.7,21.3,43,0.00,,CLR,0.44,VWS V14.01,2013-11-18 20:22:00,
2013-11-18 15:32:00,59.0,36.6,29.62,SSW,196,5.7,14.2,43,0.00,,CLR,0.44,VWS V14.01,2013-11-18 20:32:00,
2013-11-18 15:42:00,58.7,36.3,29.62,SE,125,4.3,8.5,43,0.00,,CLR,0.44,VWS V14.01,2013-11-18 20:42:00,
2013-11-18 15:52:00,58.1,36.9,29.63,SE,137,9.9,9.9,45,0.00,,CLR,0.44,VWS V14.01,2013-11-18 20:52:00,
2013-11-18 16:02:00,57.5,36.3,29.63,South,179,4.3,9.9,45,0.00,,CLR,0.44,VWS V14.01,2013-11-18 21:02:00,
2013-11-18 16:12:00,57.0,35.9,29.63,SSE,162,9.9,11.4,45,0.00,,CLR,0.44,VWS V14.01,2013-11-18 21:12:00,
2013-11-18 16:22:00,56.7,35.6,29.64,SSE,165,7.1,8.5,45,0.00,,CLR,0.44,VWS V14.01,2013-11-18 21:22:00,
2013-11-18 16:32:00,56.4,35.3,29.65,SSW,205,12.8,14.2,45,0.00,,CLR,0.44,VWS V14.01,2013-11-18 21:32:00,
2013-11-18 16:42:00,56.2,35.7,29.65,SSW,192,5.7,7.1,46,0.00,,CLR,0.44,VWS V14.01,2013-11-18 21:42:00,
2013-11-18 16:52:00,55.7,35.8,29.66,SSW,200,5.7,8.5,47,0.00,,CLR,0.44,VWS V14.01,2013-11-18 21:52:00,
2013-11-18 17:02:00,55.4,35.5,29.66,South,175,5.7,8.5,47,0.00,,CLR,0.44,VWS V14.01,2013-11-18 22:02:00,
2013-11-18 17:12:00,55.3,36.0,29.66,SSW,195,1.4,8.5,48,0.00,,CLR,0.44,VWS V14.01,2013-11-18 22:12:00,
2013-11-18 17:22:00,55.0,35.7,29.66,South,176,8.5,8.5,48,0.00,,CLR,0.44,VWS V14.01,2013-11-18 22:22:00,
2013-11-18 17:32:00,55.1,35.2,29.67,South,179,8.5,9.9,47,0.00,,CLR,0.44,VWS V14.01,2013-11-18 22:32:00,
2013-11-18 17:43:00,55.0,35.7,29.67,SSE,162,1.4,7.1,48,0.00,,CLR,0.44,VWS V14.01,2013-11-18 22:43:00,
2013-11-18 17:53:00,54.8,35.0,29.67,South,175,5.7,5.7,47,0.00,,CLR,0.44,VWS V14.01,2013-11-18 22:53:00,
2013-11-18 18:03:00,54.8,35.0,29.68,SSW,198,5.7,9.9,47,0.00,,CLR,0.44,VWS V14.01,2013-11-18 23:03:00,
2013-11-18 18:13:00,54.8,35.0,29.68,South,175,2.8,4.3,47,0.00,,CLR,0.44,VWS V14.01,2013-11-18 23:13:00,
2013-11-18 18:23:00,54.4,35.1,29.68,South,184,2.8,4.3,48,0.00,,CLR,0.44,VWS V14.01,2013-11-18 23:23:00,
2013-11-18 18:33:00,54.1,35.4,29.68,South,182,2.8,5.7,49,0.00,,CLR,0.44,VWS V14.01,2013-11-18 23:33:00,
2013-11-18 18:43:00,53.8,35.6,29.68,South,191,4.3,7.1,50,0.00,,CLR,0.44,VWS V14.01,2013-11-18 23:43:00,
2013-11-18 18:53:00,53.8,34.6,29.69,SW,236,2.8,4.3,48,0.00,,CLR,0.44,VWS V14.01,2013-11-18 23:53:00,
2013-11-18 19:03:00,53.7,34.0,29.69,SSW,201,0.0,4.3,47,0.00,,CLR,0.44,VWS V14.01,2013-11-19 00:03:00,
2013-11-18 19:13:00,53.3,33.6,29.69,SW,221,2.8,9.9,47,0.00,,CLR,0.44,VWS V14.01,2013-11-19 00:13:00,
2013-11-18 19:23:00,52.8,33.2,29.69,South,171,7.1,9.9,47,0.00,,CLR,0.44,VWS V14.01,2013-11-19 00:23:00,
2013-11-18 19:33:00,53.5,31.0,29.70,SSW,192,2.8,9.9,42,0.00,,CLR,0.44,VWS V14.01,2013-11-19 00:33:00,
2013-11-18 19:43:00,53.5,30.4,29.70,WSW,243,2.8,11.4,41,0.00,,CLR,0.44,VWS V14.01,2013-11-19 00:43:00,
2013-11-18 19:53:00,53.2,29.5,29.70,SSE,163,0.0,11.4,40,0.00,,CLR,0.44,VWS V14.01,2013-11-19 00:53:00,
2013-11-18 20:03:00,53.1,29.4,29.69,SW,218,5.7,9.9,40,0.00,,CLR,0.44,VWS V14.01,2013-11-19 01:03:00,
2013-11-18 20:13:00,53.1,28.8,29.69,SSW,207,1.4,5.7,39,0.00,,CLR,0.44,VWS V14.01,2013-11-19 01:13:00,
2013-11-18 20:23:00,52.5,28.9,29.70,SSW,208,7.1,8.5,40,0.00,,CLR,0.44,VWS V14.01,2013-11-19 01:23:00,
2013-11-18 20:33:00,52.4,28.8,29.70,South,185,1.4,7.1,40,0.00,,CLR,0.44,VWS V14.01,2013-11-19 01:33:00,
2013-11-18 20:42:00,51.9,29.5,29.70,SE,126,5.7,8.5,42,0.00,,CLR,0.44,VWS V14.01,2013-11-19 01:42:00,
2013-11-18 20:52:00,51.9,29.0,29.70,South,187,8.5,8.5,41,0.00,,CLR,0.44,VWS V14.01,2013-11-19 01:52:00,
2013-11-18 21:02:00,51.9,28.4,29.70,SSW,202,1.4,4.3,40,0.00,,CLR,0.44,VWS V14.01,2013-11-19 02:02:00,
2013-11-18 21:12:00,51.9,28.4,29.70,WSW,245,1.4,5.7,40,0.00,,CLR,0.44,VWS V14.01,2013-11-19 02:12:00,
2013-11-18 21:22:00,51.8,28.3,29.70,SSW,195,2.8,4.3,40,0.00,,CLR,0.44,VWS V14.01,2013-11-19 02:22:00,
2013-11-18 21:32:00,51.5,28.0,29.70,South,180,1.4,7.1,40,0.00,,CLR,0.44,VWS V14.01,2013-11-19 02:32:00,
2013-11-18 21:42:00,51.6,28.1,29.70,SSW,208,9.9,11.4,40,0.00,,CLR,0.44,VWS V14.01,2013-11-19 02:42:00,
2013-11-18 21:52:00,51.5,28.6,29.70,South,175,1.4,8.5,41,0.00,,CLR,0.44,VWS V14.01,2013-11-19 02:52:00,
2013-11-18 22:02:00,51.5,27.4,29.71,WNW,292,1.4,12.8,39,0.00,,CLR,0.44,VWS V14.01,2013-11-19 03:02:00,
2013-11-18 22:12:00,51.5,28.0,29.71,SW,227,1.4,4.3,40,0.00,,CLR,0.44,VWS V14.01,2013-11-19 03:12:00,
2013-11-18 22:22:00,51.1,27.6,29.71,SE,128,5.7,9.9,40,0.00,,CLR,0.44,VWS V14.01,2013-11-19 03:22:00,
2013-11-18 22:32:00,50.6,28.4,29.72,SW,223,2.8,8.5,42,0.00,,CLR,0.44,VWS V14.01,2013-11-19 03:32:00,
2013-11-18 22:42:00,50.2,28.6,29.73,WNW,282,1.4,7.1,43,0.00,,CLR,0.44,VWS V14.01,2013-11-19 03:42:00,
2013-11-18 22:52:00,49.3,31.0,29.74,WNW,292,1.4,5.7,49,0.00,,CLR,0.44,VWS V14.01,2013-11-19 03:52:00,
2013-11-18 23:02:00,48.4,31.6,29.74,WSW,258,2.8,7.1,52,0.00,,CLR,0.44,VWS V14.01,2013-11-19 04:02:00,
2013-11-18 23:12:00,47.8,32.0,29.74,SW,214,1.4,4.3,54,0.00,,CLR,0.44,VWS V14.01,2013-11-19 04:12:00,
2013-11-18 23:22:00,47.4,31.6,29.74,SSW,200,7.1,7.1,54,0.00,,CLR,0.44,VWS V14.01,2013-11-19 04:22:00,
2013-11-18 23:33:00,47.4,30.2,29.74,WSW,252,14.2,14.2,51,0.00,,CLR,0.44,VWS V14.01,2013-11-19 04:33:00,
2013-11-18 23:43:00,47.2,25.9,29.74,WSW,244,7.1,17.0,43,0.00,,CLR,0.44,VWS V14.01,2013-11-19 04:43:00,
2013-11-18 23:53:00,47.4,25.5,29.74,WSW,253,0.0,14.2,42,0.00,,CLR,0.44,VWS V14.01,2013-11-19 04:53:00,